sensor_id;sensor_type;location;lat;lon;timestamp;temperature;humidity
16666;DHT22;8446;50.998;6.250;2023-09-07T00:01:29;16.00;99.90
16666;DHT22;8446;50.998;6.250;2023-09-07T00:03:56;16.00;99.90
16666;DHT22;8446;50.998;6.250;2023-09-07T00:06:23;16.00;99.90
16666;DHT22;8446;50.998;6.250;2023-09-07T00:08:51;15.80;99.90
16666;DHT22;8446;50.998;6.250;2023-09-07T00:11:18;15.80;99.90
16666;DHT22;8446;50.998;6.250;2023-09-07T00:13:45;15.80;99.90
16666;DHT22;8446;50.998;6.250;2023-09-07T00:16:12;15.80;99.90
16666;DHT22;8446;50.998;6.250;2023-09-07T00:18:38;15.80;99.90
16666;DHT22;8446;50.998;6.250;2023-09-07T00:21:05;15.80;99.90
16666;DHT22;8446;50.998;6.250;2023-09-07T00:23:32;15.70;99.90
16666;DHT22;8446;50.998;6.250;2023-09-07T00:26:00;15.60;99.90
16666;DHT22;8446;50.998;6.250;2023-09-07T00:28:27;15.00;99.90
16666;DHT22;8446;50.998;6.250;2023-09-07T00:30:54;15.00;99.90
16666;DHT22;8446;50.998;6.250;2023-09-07T00:33:21;15.10;99.90
16666;DHT22;8446;50.998;6.250;2023-09-07T00:35:48;15.30;99.90
16666;DHT22;8446;50.998;6.250;2023-09-07T00:38:15;15.30;99.90
16666;DHT22;8446;50.998;6.250;2023-09-07T00:40:43;15.50;99.90
16666;DHT22;8446;50.998;6.250;2023-09-07T00:43:12;15.70;99.90
16666;DHT22;8446;50.998;6.250;2023-09-07T00:45:39;15.60;99.90
16666;DHT22;8446;50.998;6.250;2023-09-07T00:48:06;15.60;99.90
16666;DHT22;8446;50.998;6.250;2023-09-07T00:50:33;15.60;99.90
16666;DHT22;8446;50.998;6.250;2023-09-07T00:53:00;15.50;99.90
16666;DHT22;8446;50.998;6.250;2023-09-07T00:55:28;15.40;99.90
16666;DHT22;8446;50.998;6.250;2023-09-07T00:57:58;15.50;99.90
16666;DHT22;8446;50.998;6.250;2023-09-07T01:00:26;15.50;99.90
16666;DHT22;8446;50.998;6.250;2023-09-07T01:02:53;15.40;99.90
16666;DHT22;8446;50.998;6.250;2023-09-07T01:05:23;15.30;99.90
16666;DHT22;8446;50.998;6.250;2023-09-07T01:07:54;15.30;99.90
16666;DHT22;8446;50.998;6.250;2023-09-07T01:10:22;15.10;99.90
16666;DHT22;8446;50.998;6.250;2023-09-07T01:12:49;15.10;99.90
16666;DHT22;8446;50.998;6.250;2023-09-07T01:15:16;15.00;99.90
16666;DHT22;8446;50.998;6.250;2023-09-07T01:17:44;14.90;99.90
16666;DHT22;8446;50.998;6.250;2023-09-07T01:20:13;14.90;99.90
16666;DHT22;8446;50.998;6.250;2023-09-07T01:22:43;15.00;99.90
16666;DHT22;8446;50.998;6.250;2023-09-07T01:25:10;15.00;99.90
16666;DHT22;8446;50.998;6.250;2023-09-07T01:27:37;15.10;99.90
16666;DHT22;8446;50.998;6.250;2023-09-07T01:30:06;15.10;99.90
16666;DHT22;8446;50.998;6.250;2023-09-07T01:32:33;15.10;99.90
16666;DHT22;8446;50.998;6.250;2023-09-07T01:35:01;15.00;99.90
16666;DHT22;8446;50.998;6.250;2023-09-07T01:37:31;14.90;99.90
16666;DHT22;8446;50.998;6.250;2023-09-07T01:40:00;14.70;99.90
16666;DHT22;8446;50.998;6.250;2023-09-07T01:42:29;14.80;99.90
16666;DHT22;8446;50.998;6.250;2023-09-07T01:44:56;14.50;99.90
16666;DHT22;8446;50.998;6.250;2023-09-07T01:47:23;14.60;99.90
16666;DHT22;8446;50.998;6.250;2023-09-07T01:49:49;14.70;99.90
16666;DHT22;8446;50.998;6.250;2023-09-07T01:52:16;14.70;99.90
16666;DHT22;8446;50.998;6.250;2023-09-07T01:54:43;14.70;99.90
16666;DHT22;8446;50.998;6.250;2023-09-07T01:57:11;14.70;99.90
16666;DHT22;8446;50.998;6.250;2023-09-07T01:59:38;14.90;99.90
16666;DHT22;8446;50.998;6.250;2023-09-07T02:02:05;14.70;99.90
16666;DHT22;8446;50.998;6.250;2023-09-07T02:04:31;14.50;99.90
16666;DHT22;8446;50.998;6.250;2023-09-07T02:06:58;14.60;99.90
16666;DHT22;8446;50.998;6.250;2023-09-07T02:09:25;14.60;99.90
16666;DHT22;8446;50.998;6.250;2023-09-07T02:11:52;14.60;99.90
16666;DHT22;8446;50.998;6.250;2023-09-07T02:14:20;14.80;99.90
16666;DHT22;8446;50.998;6.250;2023-09-07T02:16:46;14.70;99.90
16666;DHT22;8446;50.998;6.250;2023-09-07T02:19:13;14.60;99.90
16666;DHT22;8446;50.998;6.250;2023-09-07T02:21:39;14.70;99.90
16666;DHT22;8446;50.998;6.250;2023-09-07T02:24:06;14.80;99.90
16666;DHT22;8446;50.998;6.250;2023-09-07T02:26:33;14.90;99.90
16666;DHT22;8446;50.998;6.250;2023-09-07T02:29:00;14.90;99.90
16666;DHT22;8446;50.998;6.250;2023-09-07T02:31:32;15.10;99.90
16666;DHT22;8446;50.998;6.250;2023-09-07T02:33:58;14.80;99.90
16666;DHT22;8446;50.998;6.250;2023-09-07T02:36:25;14.80;99.90
16666;DHT22;8446;50.998;6.250;2023-09-07T02:38:52;14.80;99.90
16666;DHT22;8446;50.998;6.250;2023-09-07T02:41:19;14.90;99.90
16666;DHT22;8446;50.998;6.250;2023-09-07T02:43:45;14.80;99.90
16666;DHT22;8446;50.998;6.250;2023-09-07T02:46:11;15.00;99.90
16666;DHT22;8446;50.998;6.250;2023-09-07T02:48:39;14.90;99.90
16666;DHT22;8446;50.998;6.250;2023-09-07T02:51:06;15.40;99.90
16666;DHT22;8446;50.998;6.250;2023-09-07T02:53:33;15.20;99.90
16666;DHT22;8446;50.998;6.250;2023-09-07T02:55:59;15.50;99.90
16666;DHT22;8446;50.998;6.250;2023-09-07T02:58:27;15.40;99.90
16666;DHT22;8446;50.998;6.250;2023-09-07T03:00:54;16.40;99.90
16666;DHT22;8446;50.998;6.250;2023-09-07T03:03:21;16.60;99.90
16666;DHT22;8446;50.998;6.250;2023-09-07T03:05:49;16.70;99.90
16666;DHT22;8446;50.998;6.250;2023-09-07T03:08:16;16.70;99.90
16666;DHT22;8446;50.998;6.250;2023-09-07T03:10:43;16.90;99.90
16666;DHT22;8446;50.998;6.250;2023-09-07T03:13:09;16.70;99.90
16666;DHT22;8446;50.998;6.250;2023-09-07T03:15:36;16.40;99.90
16666;DHT22;8446;50.998;6.250;2023-09-07T03:18:03;16.40;99.90
16666;DHT22;8446;50.998;6.250;2023-09-07T03:20:33;16.00;99.90
16666;DHT22;8446;50.998;6.250;2023-09-07T03:23:01;15.80;99.90
16666;DHT22;8446;50.998;6.250;2023-09-07T03:25:29;15.70;99.90
16666;DHT22;8446;50.998;6.250;2023-09-07T03:27:56;15.20;99.90
16666;DHT22;8446;50.998;6.250;2023-09-07T03:30:22;15.30;99.90
16666;DHT22;8446;50.998;6.250;2023-09-07T03:32:49;15.10;99.90
16666;DHT22;8446;50.998;6.250;2023-09-07T03:35:16;15.10;99.90
16666;DHT22;8446;50.998;6.250;2023-09-07T03:37:43;15.00;99.90
16666;DHT22;8446;50.998;6.250;2023-09-07T03:40:11;14.80;99.90
16666;DHT22;8446;50.998;6.250;2023-09-07T03:42:38;14.80;99.90
16666;DHT22;8446;50.998;6.250;2023-09-07T03:45:06;14.50;99.90
16666;DHT22;8446;50.998;6.250;2023-09-07T03:47:33;14.50;99.90
16666;DHT22;8446;50.998;6.250;2023-09-07T03:49:59;14.50;99.90
16666;DHT22;8446;50.998;6.250;2023-09-07T03:52:26;14.50;99.90
16666;DHT22;8446;50.998;6.250;2023-09-07T03:54:54;14.40;99.90
16666;DHT22;8446;50.998;6.250;2023-09-07T03:57:23;14.30;99.90
16666;DHT22;8446;50.998;6.250;2023-09-07T03:59:50;14.30;99.90
16666;DHT22;8446;50.998;6.250;2023-09-07T04:02:17;14.20;99.90
16666;DHT22;8446;50.998;6.250;2023-09-07T04:04:48;14.10;99.90
16666;DHT22;8446;50.998;6.250;2023-09-07T04:07:15;14.10;99.90
16666;DHT22;8446;50.998;6.250;2023-09-07T04:09:42;14.00;99.90
16666;DHT22;8446;50.998;6.250;2023-09-07T04:12:09;14.10;99.90
16666;DHT22;8446;50.998;6.250;2023-09-07T04:14:37;14.00;99.90
16666;DHT22;8446;50.998;6.250;2023-09-07T04:17:04;14.10;99.90
16666;DHT22;8446;50.998;6.250;2023-09-07T04:19:31;13.90;99.90
16666;DHT22;8446;50.998;6.250;2023-09-07T04:21:58;14.00;99.90
16666;DHT22;8446;50.998;6.250;2023-09-07T04:24:25;14.00;99.90
16666;DHT22;8446;50.998;6.250;2023-09-07T04:26:53;14.40;99.90
16666;DHT22;8446;50.998;6.250;2023-09-07T04:29:19;14.20;99.90
16666;DHT22;8446;50.998;6.250;2023-09-07T04:31:47;14.50;99.90
16666;DHT22;8446;50.998;6.250;2023-09-07T04:34:14;15.30;99.90
16666;DHT22;8446;50.998;6.250;2023-09-07T04:36:41;15.80;99.90
16666;DHT22;8446;50.998;6.250;2023-09-07T04:39:08;15.90;99.90
16666;DHT22;8446;50.998;6.250;2023-09-07T04:41:35;16.00;99.90
16666;DHT22;8446;50.998;6.250;2023-09-07T04:44:02;15.60;99.90
16666;DHT22;8446;50.998;6.250;2023-09-07T04:46:29;15.30;99.90
16666;DHT22;8446;50.998;6.250;2023-09-07T04:48:57;15.10;99.90
16666;DHT22;8446;50.998;6.250;2023-09-07T04:51:24;15.20;99.90
16666;DHT22;8446;50.998;6.250;2023-09-07T04:53:51;15.10;99.90
16666;DHT22;8446;50.998;6.250;2023-09-07T04:56:18;15.00;99.90
16666;DHT22;8446;50.998;6.250;2023-09-07T04:58:46;14.90;99.90
16666;DHT22;8446;50.998;6.250;2023-09-07T05:01:12;14.80;99.90
16666;DHT22;8446;50.998;6.250;2023-09-07T05:03:39;14.70;99.90
16666;DHT22;8446;50.998;6.250;2023-09-07T05:06:08;14.60;99.90
16666;DHT22;8446;50.998;6.250;2023-09-07T05:08:34;14.70;99.90
16666;DHT22;8446;50.998;6.250;2023-09-07T05:11:03;14.40;99.90
16666;DHT22;8446;50.998;6.250;2023-09-07T05:13:30;14.60;99.90
16666;DHT22;8446;50.998;6.250;2023-09-07T05:15:58;15.00;99.90
16666;DHT22;8446;50.998;6.250;2023-09-07T05:18:25;15.40;99.90
16666;DHT22;8446;50.998;6.250;2023-09-07T05:20:52;15.70;99.90
16666;DHT22;8446;50.998;6.250;2023-09-07T05:23:22;15.50;99.90
16666;DHT22;8446;50.998;6.250;2023-09-07T05:25:51;15.30;99.90
16666;DHT22;8446;50.998;6.250;2023-09-07T05:28:19;15.00;99.90
16666;DHT22;8446;50.998;6.250;2023-09-07T05:30:46;15.00;99.90
16666;DHT22;8446;50.998;6.250;2023-09-07T05:33:14;15.10;99.90
16666;DHT22;8446;50.998;6.250;2023-09-07T05:35:41;14.90;99.90
16666;DHT22;8446;50.998;6.250;2023-09-07T05:38:08;14.90;99.90
16666;DHT22;8446;50.998;6.250;2023-09-07T05:40:39;15.00;99.90
16666;DHT22;8446;50.998;6.250;2023-09-07T05:43:06;15.00;99.90
16666;DHT22;8446;50.998;6.250;2023-09-07T05:45:34;15.10;99.90
16666;DHT22;8446;50.998;6.250;2023-09-07T05:48:02;15.20;99.90
16666;DHT22;8446;50.998;6.250;2023-09-07T05:50:29;15.20;99.90
16666;DHT22;8446;50.998;6.250;2023-09-07T05:52:55;15.50;99.90
16666;DHT22;8446;50.998;6.250;2023-09-07T05:55:22;16.20;99.90
16666;DHT22;8446;50.998;6.250;2023-09-07T05:57:50;16.50;99.90
16666;DHT22;8446;50.998;6.250;2023-09-07T06:00:17;16.70;99.90
16666;DHT22;8446;50.998;6.250;2023-09-07T06:02:46;16.90;99.90
16666;DHT22;8446;50.998;6.250;2023-09-07T06:05:13;16.90;99.90
16666;DHT22;8446;50.998;6.250;2023-09-07T06:07:40;17.00;99.90
16666;DHT22;8446;50.998;6.250;2023-09-07T06:10:07;17.10;99.90
16666;DHT22;8446;50.998;6.250;2023-09-07T06:12:34;17.10;99.90
16666;DHT22;8446;50.998;6.250;2023-09-07T06:15:03;17.20;99.90
16666;DHT22;8446;50.998;6.250;2023-09-07T06:17:30;17.30;99.90
16666;DHT22;8446;50.998;6.250;2023-09-07T06:19:57;17.40;99.90
16666;DHT22;8446;50.998;6.250;2023-09-07T06:22:24;17.60;99.90
16666;DHT22;8446;50.998;6.250;2023-09-07T06:24:50;17.60;99.90
16666;DHT22;8446;50.998;6.250;2023-09-07T06:27:17;17.70;99.90
16666;DHT22;8446;50.998;6.250;2023-09-07T06:29:44;17.70;99.90
16666;DHT22;8446;50.998;6.250;2023-09-07T06:32:12;17.80;99.90
16666;DHT22;8446;50.998;6.250;2023-09-07T06:34:39;17.90;99.90
16666;DHT22;8446;50.998;6.250;2023-09-07T06:37:06;17.90;99.90
16666;DHT22;8446;50.998;6.250;2023-09-07T06:39:33;18.00;99.90
16666;DHT22;8446;50.998;6.250;2023-09-07T06:42:00;18.10;99.90
16666;DHT22;8446;50.998;6.250;2023-09-07T06:44:27;18.20;99.90
16666;DHT22;8446;50.998;6.250;2023-09-07T06:46:53;18.30;99.90
16666;DHT22;8446;50.998;6.250;2023-09-07T06:49:22;18.40;99.90
16666;DHT22;8446;50.998;6.250;2023-09-07T06:51:49;18.60;99.90
16666;DHT22;8446;50.998;6.250;2023-09-07T06:54:16;18.50;99.90
16666;DHT22;8446;50.998;6.250;2023-09-07T06:56:43;18.80;99.90
16666;DHT22;8446;50.998;6.250;2023-09-07T06:59:09;19.00;99.90
16666;DHT22;8446;50.998;6.250;2023-09-07T07:01:36;19.10;99.90
16666;DHT22;8446;50.998;6.250;2023-09-07T07:04:03;19.20;99.90
16666;DHT22;8446;50.998;6.250;2023-09-07T07:06:31;19.40;99.90
16666;DHT22;8446;50.998;6.250;2023-09-07T07:08:58;19.50;99.90
16666;DHT22;8446;50.998;6.250;2023-09-07T07:11:25;19.60;99.90
16666;DHT22;8446;50.998;6.250;2023-09-07T07:13:52;19.60;99.90
16666;DHT22;8446;50.998;6.250;2023-09-07T07:16:19;19.80;99.90
16666;DHT22;8446;50.998;6.250;2023-09-07T07:18:45;19.90;99.90
16666;DHT22;8446;50.998;6.250;2023-09-07T07:21:12;20.10;99.90
16666;DHT22;8446;50.998;6.250;2023-09-07T07:23:40;20.20;99.90
16666;DHT22;8446;50.998;6.250;2023-09-07T07:26:07;20.20;99.90
16666;DHT22;8446;50.998;6.250;2023-09-07T07:28:34;20.30;99.90
16666;DHT22;8446;50.998;6.250;2023-09-07T07:31:07;20.50;99.90
16666;DHT22;8446;50.998;6.250;2023-09-07T07:33:34;20.70;99.90
16666;DHT22;8446;50.998;6.250;2023-09-07T07:36:01;20.90;99.90
16666;DHT22;8446;50.998;6.250;2023-09-07T07:38:27;20.90;99.90
16666;DHT22;8446;50.998;6.250;2023-09-07T07:40:55;20.90;99.90
16666;DHT22;8446;50.998;6.250;2023-09-07T07:43:22;21.00;99.90
16666;DHT22;8446;50.998;6.250;2023-09-07T07:45:49;21.20;99.90
16666;DHT22;8446;50.998;6.250;2023-09-07T07:48:16;21.30;99.90
16666;DHT22;8446;50.998;6.250;2023-09-07T07:50:42;21.40;99.90
16666;DHT22;8446;50.998;6.250;2023-09-07T07:53:09;21.60;99.90
16666;DHT22;8446;50.998;6.250;2023-09-07T07:55:36;21.70;99.90
16666;DHT22;8446;50.998;6.250;2023-09-07T07:58:06;21.80;99.90
16666;DHT22;8446;50.998;6.250;2023-09-07T08:00:33;21.80;99.90
16666;DHT22;8446;50.998;6.250;2023-09-07T08:03:00;22.00;99.90
16666;DHT22;8446;50.998;6.250;2023-09-07T08:05:28;22.10;99.90
16666;DHT22;8446;50.998;6.250;2023-09-07T08:07:56;22.30;99.90
16666;DHT22;8446;50.998;6.250;2023-09-07T08:10:23;22.40;99.90
16666;DHT22;8446;50.998;6.250;2023-09-07T08:12:53;22.50;99.90
16666;DHT22;8446;50.998;6.250;2023-09-07T08:15:21;22.40;99.90
16666;DHT22;8446;50.998;6.250;2023-09-07T08:17:50;22.80;99.90
16666;DHT22;8446;50.998;6.250;2023-09-07T08:20:17;22.90;99.90
16666;DHT22;8446;50.998;6.250;2023-09-07T08:22:44;23.20;99.90
16666;DHT22;8446;50.998;6.250;2023-09-07T08:25:11;23.00;99.90
16666;DHT22;8446;50.998;6.250;2023-09-07T08:27:38;23.20;99.90
16666;DHT22;8446;50.998;6.250;2023-09-07T08:30:10;23.20;99.90
16666;DHT22;8446;50.998;6.250;2023-09-07T08:32:38;23.30;99.90
16666;DHT22;8446;50.998;6.250;2023-09-07T08:35:05;23.60;99.90
16666;DHT22;8446;50.998;6.250;2023-09-07T08:37:34;23.50;99.90
16666;DHT22;8446;50.998;6.250;2023-09-07T08:40:01;23.70;99.90
16666;DHT22;8446;50.998;6.250;2023-09-07T08:42:30;23.80;99.90
16666;DHT22;8446;50.998;6.250;2023-09-07T08:44:57;24.20;99.90
16666;DHT22;8446;50.998;6.250;2023-09-07T08:47:28;24.00;99.90
16666;DHT22;8446;50.998;6.250;2023-09-07T08:49:58;24.20;99.90
16666;DHT22;8446;50.998;6.250;2023-09-07T08:52:25;24.50;99.90
16666;DHT22;8446;50.998;6.250;2023-09-07T08:54:52;24.50;99.90
16666;DHT22;8446;50.998;6.250;2023-09-07T08:57:21;24.40;99.90
16666;DHT22;8446;50.998;6.250;2023-09-07T08:59:49;24.80;99.90
16666;DHT22;8446;50.998;6.250;2023-09-07T09:02:16;24.70;99.90
16666;DHT22;8446;50.998;6.250;2023-09-07T09:04:43;24.80;99.90
16666;DHT22;8446;50.998;6.250;2023-09-07T09:07:11;25.00;99.90
16666;DHT22;8446;50.998;6.250;2023-09-07T09:09:37;25.20;99.90
16666;DHT22;8446;50.998;6.250;2023-09-07T09:12:08;25.00;99.90
16666;DHT22;8446;50.998;6.250;2023-09-07T09:14:35;25.10;99.90
16666;DHT22;8446;50.998;6.250;2023-09-07T09:17:02;25.10;99.90
16666;DHT22;8446;50.998;6.250;2023-09-07T09:19:32;25.00;99.90
16666;DHT22;8446;50.998;6.250;2023-09-07T09:21:59;25.30;99.90
16666;DHT22;8446;50.998;6.250;2023-09-07T09:24:31;25.60;99.90
16666;DHT22;8446;50.998;6.250;2023-09-07T09:26:58;25.70;99.90
16666;DHT22;8446;50.998;6.250;2023-09-07T09:29:24;25.80;99.90
16666;DHT22;8446;50.998;6.250;2023-09-07T09:31:52;25.80;99.90
16666;DHT22;8446;50.998;6.250;2023-09-07T09:34:20;25.70;99.90
16666;DHT22;8446;50.998;6.250;2023-09-07T09:36:47;25.60;99.90
16666;DHT22;8446;50.998;6.250;2023-09-07T09:39:22;25.80;99.90
16666;DHT22;8446;50.998;6.250;2023-09-07T09:41:51;25.90;99.90
16666;DHT22;8446;50.998;6.250;2023-09-07T09:44:19;26.10;99.90
16666;DHT22;8446;50.998;6.250;2023-09-07T09:46:47;26.50;99.90
16666;DHT22;8446;50.998;6.250;2023-09-07T09:49:17;26.10;99.90
16666;DHT22;8446;50.998;6.250;2023-09-07T09:51:45;26.50;99.90
16666;DHT22;8446;50.998;6.250;2023-09-07T09:54:16;26.50;99.90
16666;DHT22;8446;50.998;6.250;2023-09-07T09:56:42;26.60;99.90
16666;DHT22;8446;50.998;6.250;2023-09-07T09:59:11;26.60;99.90
16666;DHT22;8446;50.998;6.250;2023-09-07T10:01:41;26.50;99.90
16666;DHT22;8446;50.998;6.250;2023-09-07T10:04:11;26.60;99.90
16666;DHT22;8446;50.998;6.250;2023-09-07T10:06:38;26.70;99.90
16666;DHT22;8446;50.998;6.250;2023-09-07T10:09:06;26.80;99.90
16666;DHT22;8446;50.998;6.250;2023-09-07T10:11:37;27.00;99.30
16666;DHT22;8446;50.998;6.250;2023-09-07T10:14:06;26.90;99.90
16666;DHT22;8446;50.998;6.250;2023-09-07T10:16:44;26.80;99.90
16666;DHT22;8446;50.998;6.250;2023-09-07T10:19:15;26.80;99.90
16666;DHT22;8446;50.998;6.250;2023-09-07T10:21:42;27.20;99.90
16666;DHT22;8446;50.998;6.250;2023-09-07T10:24:09;27.40;99.70
16666;DHT22;8446;50.998;6.250;2023-09-07T10:26:37;27.10;99.90
16666;DHT22;8446;50.998;6.250;2023-09-07T10:29:04;27.10;99.10
16666;DHT22;8446;50.998;6.250;2023-09-07T10:31:31;27.40;99.40
16666;DHT22;8446;50.998;6.250;2023-09-07T10:34:09;27.90;98.40
16666;DHT22;8446;50.998;6.250;2023-09-07T10:36:37;27.50;99.70
16666;DHT22;8446;50.998;6.250;2023-09-07T10:39:05;27.40;98.90
16666;DHT22;8446;50.998;6.250;2023-09-07T10:41:41;27.70;98.70
16666;DHT22;8446;50.998;6.250;2023-09-07T10:44:09;27.90;98.40
16666;DHT22;8446;50.998;6.250;2023-09-07T10:46:38;28.00;98.70
16666;DHT22;8446;50.998;6.250;2023-09-07T10:49:08;27.70;99.40
16666;DHT22;8446;50.998;6.250;2023-09-07T10:51:41;28.10;98.70
16666;DHT22;8446;50.998;6.250;2023-09-07T10:54:16;28.10;98.40
16666;DHT22;8446;50.998;6.250;2023-09-07T10:56:46;28.50;97.80
16666;DHT22;8446;50.998;6.250;2023-09-07T10:59:13;28.50;96.60
16666;DHT22;8446;50.998;6.250;2023-09-07T11:01:40;28.30;96.80
16666;DHT22;8446;50.998;6.250;2023-09-07T11:04:09;28.40;95.90
16666;DHT22;8446;50.998;6.250;2023-09-07T11:06:36;28.60;96.90
16666;DHT22;8446;50.998;6.250;2023-09-07T11:09:04;29.10;96.60
16666;DHT22;8446;50.998;6.250;2023-09-07T11:11:34;28.90;96.70
16666;DHT22;8446;50.998;6.250;2023-09-07T11:14:02;29.10;94.80
16666;DHT22;8446;50.998;6.250;2023-09-07T11:16:29;28.90;95.40
16666;DHT22;8446;50.998;6.250;2023-09-07T11:18:56;29.10;94.90
16666;DHT22;8446;50.998;6.250;2023-09-07T11:21:25;29.10;94.80
16666;DHT22;8446;50.998;6.250;2023-09-07T11:23:53;29.20;94.30
16666;DHT22;8446;50.998;6.250;2023-09-07T11:26:20;29.70;93.70
16666;DHT22;8446;50.998;6.250;2023-09-07T11:28:48;29.60;93.60
16666;DHT22;8446;50.998;6.250;2023-09-07T11:31:19;30.00;94.10
16666;DHT22;8446;50.998;6.250;2023-09-07T11:33:47;30.10;93.40
16666;DHT22;8446;50.998;6.250;2023-09-07T11:36:14;30.00;92.60
16666;DHT22;8446;50.998;6.250;2023-09-07T11:38:43;30.10;91.60
16666;DHT22;8446;50.998;6.250;2023-09-07T11:41:11;30.10;91.30
16666;DHT22;8446;50.998;6.250;2023-09-07T11:43:38;30.10;91.10
16666;DHT22;8446;50.998;6.250;2023-09-07T11:46:05;30.50;91.30
16666;DHT22;8446;50.998;6.250;2023-09-07T11:48:32;30.80;90.90
16666;DHT22;8446;50.998;6.250;2023-09-07T11:51:00;30.10;90.40
16666;DHT22;8446;50.998;6.250;2023-09-07T11:53:27;30.10;90.40
16666;DHT22;8446;50.998;6.250;2023-09-07T11:55:56;30.50;90.60
16666;DHT22;8446;50.998;6.250;2023-09-07T11:58:24;30.60;91.00
16666;DHT22;8446;50.998;6.250;2023-09-07T12:00:52;30.80;90.80
16666;DHT22;8446;50.998;6.250;2023-09-07T12:03:19;30.70;91.20
16666;DHT22;8446;50.998;6.250;2023-09-07T12:05:46;30.40;90.20
16666;DHT22;8446;50.998;6.250;2023-09-07T12:08:12;30.40;88.20
16666;DHT22;8446;50.998;6.250;2023-09-07T12:10:40;30.40;90.70
16666;DHT22;8446;50.998;6.250;2023-09-07T12:13:08;30.60;88.90
16666;DHT22;8446;50.998;6.250;2023-09-07T12:15:35;30.50;90.00
16666;DHT22;8446;50.998;6.250;2023-09-07T12:18:02;30.70;89.30
16666;DHT22;8446;50.998;6.250;2023-09-07T12:20:29;31.00;87.50
16666;DHT22;8446;50.998;6.250;2023-09-07T12:22:55;30.90;87.80
16666;DHT22;8446;50.998;6.250;2023-09-07T12:25:22;30.50;87.90
16666;DHT22;8446;50.998;6.250;2023-09-07T12:27:49;30.70;89.60
16666;DHT22;8446;50.998;6.250;2023-09-07T12:30:18;31.00;86.60
16666;DHT22;8446;50.998;6.250;2023-09-07T12:32:46;30.90;88.70
16666;DHT22;8446;50.998;6.250;2023-09-07T12:35:13;30.70;87.10
16666;DHT22;8446;50.998;6.250;2023-09-07T12:37:40;30.70;86.10
16666;DHT22;8446;50.998;6.250;2023-09-07T12:40:08;31.30;88.40
16666;DHT22;8446;50.998;6.250;2023-09-07T12:42:40;31.20;85.00
16666;DHT22;8446;50.998;6.250;2023-09-07T12:45:09;31.20;86.70
16666;DHT22;8446;50.998;6.250;2023-09-07T12:47:38;31.30;83.70
16666;DHT22;8446;50.998;6.250;2023-09-07T12:50:05;31.30;84.50
16666;DHT22;8446;50.998;6.250;2023-09-07T12:52:32;31.50;84.80
16666;DHT22;8446;50.998;6.250;2023-09-07T12:55:00;31.50;85.90
16666;DHT22;8446;50.998;6.250;2023-09-07T12:57:26;31.20;82.50
16666;DHT22;8446;50.998;6.250;2023-09-07T12:59:53;31.50;83.20
16666;DHT22;8446;50.998;6.250;2023-09-07T13:02:20;31.20;85.60
16666;DHT22;8446;50.998;6.250;2023-09-07T13:04:48;31.50;85.90
16666;DHT22;8446;50.998;6.250;2023-09-07T13:07:15;31.50;84.60
16666;DHT22;8446;50.998;6.250;2023-09-07T13:09:42;31.50;82.90
16666;DHT22;8446;50.998;6.250;2023-09-07T13:12:09;31.80;82.40
16666;DHT22;8446;50.998;6.250;2023-09-07T13:14:36;31.30;83.50
16666;DHT22;8446;50.998;6.250;2023-09-07T13:17:03;31.30;80.80
16666;DHT22;8446;50.998;6.250;2023-09-07T13:19:30;32.10;82.30
16666;DHT22;8446;50.998;6.250;2023-09-07T13:21:58;31.80;81.60
16666;DHT22;8446;50.998;6.250;2023-09-07T13:24:25;31.90;83.10
16666;DHT22;8446;50.998;6.250;2023-09-07T13:26:52;32.30;79.60
16666;DHT22;8446;50.998;6.250;2023-09-07T13:29:19;31.60;80.10
16666;DHT22;8446;50.998;6.250;2023-09-07T13:31:46;31.30;79.00
16666;DHT22;8446;50.998;6.250;2023-09-07T13:34:12;31.70;80.90
16666;DHT22;8446;50.998;6.250;2023-09-07T13:36:39;31.70;79.10
16666;DHT22;8446;50.998;6.250;2023-09-07T13:39:07;31.80;83.50
16666;DHT22;8446;50.998;6.250;2023-09-07T13:41:34;31.70;79.00
16666;DHT22;8446;50.998;6.250;2023-09-07T13:44:01;31.40;79.50
16666;DHT22;8446;50.998;6.250;2023-09-07T13:46:28;32.00;79.70
16666;DHT22;8446;50.998;6.250;2023-09-07T13:48:55;31.60;80.50
16666;DHT22;8446;50.998;6.250;2023-09-07T13:51:21;31.80;79.10
16666;DHT22;8446;50.998;6.250;2023-09-07T13:53:49;31.50;78.80
16666;DHT22;8446;50.998;6.250;2023-09-07T13:56:18;31.70;77.00
16666;DHT22;8446;50.998;6.250;2023-09-07T13:58:45;31.80;75.80
16666;DHT22;8446;50.998;6.250;2023-09-07T14:01:11;31.70;75.20
16666;DHT22;8446;50.998;6.250;2023-09-07T14:03:38;31.60;78.50
16666;DHT22;8446;50.998;6.250;2023-09-07T14:06:05;31.70;77.70
16666;DHT22;8446;50.998;6.250;2023-09-07T14:08:32;31.70;78.40
16666;DHT22;8446;50.998;6.250;2023-09-07T14:11:00;31.60;76.70
16666;DHT22;8446;50.998;6.250;2023-09-07T14:13:28;31.60;76.90
16666;DHT22;8446;50.998;6.250;2023-09-07T14:15:55;31.30;75.20
16666;DHT22;8446;50.998;6.250;2023-09-07T14:18:22;31.50;76.20
16666;DHT22;8446;50.998;6.250;2023-09-07T14:20:49;31.70;73.70
16666;DHT22;8446;50.998;6.250;2023-09-07T14:23:16;31.50;74.50
16666;DHT22;8446;50.998;6.250;2023-09-07T14:25:42;31.90;77.20
16666;DHT22;8446;50.998;6.250;2023-09-07T14:28:10;32.20;74.40
16666;DHT22;8446;50.998;6.250;2023-09-07T14:30:39;32.70;73.40
16666;DHT22;8446;50.998;6.250;2023-09-07T14:33:06;32.30;70.70
16666;DHT22;8446;50.998;6.250;2023-09-07T14:35:32;32.00;71.50
16666;DHT22;8446;50.998;6.250;2023-09-07T14:38:00;32.50;69.20
16666;DHT22;8446;50.998;6.250;2023-09-07T14:40:27;32.10;70.60
16666;DHT22;8446;50.998;6.250;2023-09-07T14:42:55;32.30;70.10
16666;DHT22;8446;50.998;6.250;2023-09-07T14:45:23;32.40;69.40
16666;DHT22;8446;50.998;6.250;2023-09-07T14:47:51;32.20;68.70
16666;DHT22;8446;50.998;6.250;2023-09-07T14:50:18;32.40;69.50
16666;DHT22;8446;50.998;6.250;2023-09-07T14:52:45;32.50;67.70
16666;DHT22;8446;50.998;6.250;2023-09-07T14:55:13;32.00;69.50
16666;DHT22;8446;50.998;6.250;2023-09-07T14:57:40;32.30;70.80
16666;DHT22;8446;50.998;6.250;2023-09-07T15:00:09;33.00;70.00
16666;DHT22;8446;50.998;6.250;2023-09-07T15:02:37;32.60;66.10
16666;DHT22;8446;50.998;6.250;2023-09-07T15:05:05;32.60;66.10
16666;DHT22;8446;50.998;6.250;2023-09-07T15:07:32;32.60;66.90
16666;DHT22;8446;50.998;6.250;2023-09-07T15:09:59;33.20;68.60
16666;DHT22;8446;50.998;6.250;2023-09-07T15:12:26;33.00;64.80
16666;DHT22;8446;50.998;6.250;2023-09-07T15:14:53;32.90;66.20
16666;DHT22;8446;50.998;6.250;2023-09-07T15:17:19;32.90;66.90
16666;DHT22;8446;50.998;6.250;2023-09-07T15:19:46;33.00;67.50
16666;DHT22;8446;50.998;6.250;2023-09-07T15:22:14;32.50;67.50
16666;DHT22;8446;50.998;6.250;2023-09-07T15:24:41;32.90;66.50
16666;DHT22;8446;50.998;6.250;2023-09-07T15:27:09;32.90;67.20
16666;DHT22;8446;50.998;6.250;2023-09-07T15:29:36;32.30;65.70
16666;DHT22;8446;50.998;6.250;2023-09-07T15:32:03;32.70;65.80
16666;DHT22;8446;50.998;6.250;2023-09-07T15:34:31;32.40;65.90
16666;DHT22;8446;50.998;6.250;2023-09-07T15:36:59;32.50;68.30
16666;DHT22;8446;50.998;6.250;2023-09-07T15:39:27;32.80;66.70
16666;DHT22;8446;50.998;6.250;2023-09-07T15:41:54;32.20;63.60
16666;DHT22;8446;50.998;6.250;2023-09-07T15:44:21;32.30;63.90
16666;DHT22;8446;50.998;6.250;2023-09-07T15:46:49;32.70;63.40